Time;durP1;ratioP1;P1;durP2;ratioP2;P2;SDS_P1;SDS_P2;PMS_P1;PMS_P2;Temp;Humidity;BMP_temperature;BMP_pressure;BME280_temperature;BME280_humidity;BME280_pressure;Samples;Min_cycle;Max_cycle;Signal;HPM_P1;HPM_P2
2023/08/16 00:00:48;;;;;;;;;;;;;;;30.28;40.92;94488.75;5005873;28;9045;-87
2023/08/16 00:03:14;;;;;;;;;;;;;;;30.25;40.20;94493.38;4999207;28;9297;-87
2023/08/16 00:05:44;;;;;;;;;;;;;;;30.21;40.98;94476.31;4990681;28;8754;-87
2023/08/16 00:08:17;;;;;;;;;;;;;;;30.23;40.63;94479.28;4989224;28;8674;-87
2023/08/16 00:10:45;;;;;;;;;;;;;;;30.19;40.13;94473.31;4979160;28;8984;-87
2023/08/16 00:13:19;;;;;;;;;;;;;;;30.21;40.71;94476.31;4985036;28;8597;-87
2023/08/16 00:15:52;;;;;;;;;;;;;;;30.21;41.28;94476.31;4996434;28;7271;-87
2023/08/16 00:18:19;;;;;;;;;;;;;;;30.19;40.80;94470.56;4993167;28;8726;-87
2023/08/16 00:20:51;;;;;;;;;;;;;;;30.18;40.53;94466.31;4997519;28;8265;-87
2023/08/16 00:23:18;;;;;;;;;;;;;;;30.20;40.27;94472.06;4990213;28;9011;-87
2023/08/16 00:25:46;;;;;;;;;;;;;;;30.20;40.64;94474.84;4997152;28;8750;-87
2023/08/16 00:28:22;;;;;;;;;;;;;;;30.15;40.85;94467.38;4984506;28;9302;-87
2023/08/16 00:30:56;;;;;;;;;;;;;;;30.17;39.98;94473.13;4987714;28;9098;-87
2023/08/16 00:33:24;;;;;;;;;;;;;;;30.17;40.20;94470.34;4989838;28;8734;-87
2023/08/16 00:35:52;;;;;;;;;;;;;;;30.17;40.41;94459.25;4992890;28;9029;-87
2023/08/16 00:38:21;;;;;;;;;;;;;;;30.15;40.72;94458.28;5001530;28;7313;-87
2023/08/16 00:40:48;;;;;;;;;;;;;;;30.10;40.16;94454.38;4983663;28;7108;-87
2023/08/16 00:43:15;;;;;;;;;;;;;;;30.11;40.34;94453.09;4979998;28;8564;-87
2023/08/16 00:45:44;;;;;;;;;;;;;;;30.13;40.07;94458.84;4988486;28;9023;-87
2023/08/16 00:48:21;;;;;;;;;;;;;;;30.13;40.61;94456.06;4991926;28;8791;-87
2023/08/16 00:50:50;;;;;;;;;;;;;;;30.13;40.72;94444.97;5001623;28;8588;-87
2023/08/16 00:53:18;;;;;;;;;;;;;;;30.11;40.59;94442.00;4994277;28;8923;-87
2023/08/16 00:55:46;;;;;;;;;;;;;;;30.07;39.72;94436.03;4974861;28;8582;-87
2023/08/16 00:58:15;;;;;;;;;;;;;;;30.07;39.92;94433.28;4986312;28;9110;-85
2023/08/16 01:00:43;;;;;;;;;;;;;;;30.09;40.01;94433.47;4991557;28;7324;-85
2023/08/16 01:03:19;;;;;;;;;;;;;;;30.02;40.15;94425.06;4986784;28;8801;-86
2023/08/16 01:05:52;;;;;;;;;;;;;;;30.05;40.11;94433.06;4985240;28;9020;-85
2023/08/16 01:08:21;;;;;;;;;;;;;;;30.06;40.07;94420.69;5004056;28;6990;-85
2023/08/16 01:11:12;;;;;;;;;;;;;;;30.05;39.65;94430.28;4996739;28;9001;-85
2023/08/16 01:14:01;;;;;;;;;;;;;;;30.04;39.45;94426.03;4997828;28;9005;-85
2023/08/16 01:16:34;;;;;;;;;;;;;;;30.03;39.83;94432.88;4994964;28;8570;-85
2023/08/16 01:19:05;;;;;;;;;;;;;;;30.02;39.73;94420.25;4981043;28;8731;-85
2023/08/16 01:21:40;;;;;;;;;;;;;;;29.98;40.07;94422.63;4984038;28;9178;-85
2023/08/16 01:24:23;;;;;;;;;;;;;;;29.97;40.07;94423.91;4980365;28;7278;-85
2023/08/16 01:26:58;;;;;;;;;;;;;;;29.96;39.80;94427.97;4991371;28;7118;-85
2023/08/16 01:29:30;;;;;;;;;;;;;;;29.95;40.40;94426.47;5003880;28;7329;-84
2023/08/16 01:31:58;;;;;;;;;;;;;;;29.94;40.38;94422.22;4979333;28;7248;-85
2023/08/16 01:34:26;;;;;;;;;;;;;;;29.93;39.70;94417.94;4986136;28;9042;-85
2023/08/16 01:36:56;;;;;;;;;;;;;;;29.96;39.77;94422.44;5001077;28;8833;-85
2023/08/16 01:39:23;;;;;;;;;;;;;;;29.93;39.61;94414.47;4984122;28;7240;-85
2023/08/16 01:41:54;;;;;;;;;;;;;;;29.95;40.03;94418.16;4978759;28;9316;-85
2023/08/16 01:44:21;;;;;;;;;;;;;;;29.94;39.83;94418.69;4989478;28;8999;-85
2023/08/16 01:46:57;;;;;;;;;;;;;;;29.94;40.27;94413.91;4986231;28;9033;-86
2023/08/16 01:49:26;;;;;;;;;;;;;;;29.90;39.97;94413.50;4980497;28;8770;-86
2023/08/16 01:51:54;;;;;;;;;;;;;;;29.88;39.75;94421.63;4985295;28;8984;-85
2023/08/16 01:54:20;;;;;;;;;;;;;;;29.86;39.72;94423.44;4973869;28;8675;-85
2023/08/16 01:56:57;;;;;;;;;;;;;;;29.88;39.68;94435.47;4980688;28;8816;-85
2023/08/16 01:59:30;;;;;;;;;;;;;;;29.87;39.25;94433.22;4977209;28;7032;-85
2023/08/16 02:02:01;;;;;;;;;;;;;;;29.85;40.23;94430.25;5002705;28;8593;-85
2023/08/16 02:04:32;;;;;;;;;;;;;;;29.82;40.21;94423.75;4990320;28;6898;-85
2023/08/16 02:07:01;;;;;;;;;;;;;;;29.80;39.72;94424.28;4984804;28;9028;-85
2023/08/16 02:09:29;;;;;;;;;;;;;;;29.83;40.09;94424.50;4973336;28;9314;-88
2023/08/16 02:11:57;;;;;;;;;;;;;;;29.83;39.59;94418.94;5000747;28;9170;-87
2023/08/16 02:14:25;;;;;;;;;;;;;;;29.82;40.24;94418.19;4990458;28;9166;-88
2023/08/16 02:16:56;;;;;;;;;;;;;;;29.80;39.95;94418.75;4984534;28;8746;-88
2023/08/16 02:19:22;;;;;;;;;;;;;;;29.77;39.69;94416.31;4990352;28;7249;-88
2023/08/16 02:21:49;;;;;;;;;;;;;;;29.79;39.98;94416.53;4997196;28;8862;-88
2023/08/16 02:24:16;;;;;;;;;;;;;;;29.77;39.53;94408.75;4989970;28;8712;-88
2023/08/16 02:26:44;;;;;;;;;;;;;;;29.77;39.60;94410.78;4981329;28;8714;-87
2023/08/16 02:29:14;;;;;;;;;;;;;;;29.77;40.04;94413.53;4991691;28;9109;-87
2023/08/16 02:31:41;;;;;;;;;;;;;;;29.75;39.59;94407.78;4996363;28;8736;-88
2023/08/16 02:34:08;;;;;;;;;;;;;;;29.76;39.76;94418.34;5000062;28;7244;-87
2023/08/16 02:36:35;;;;;;;;;;;;;;;29.76;39.62;94406.50;4991001;28;9028;-87
2023/08/16 02:39:06;;;;;;;;;;;;;;;29.76;39.81;94409.28;5001883;28;8825;-88
2023/08/16 02:41:42;;;;;;;;;;;;;;;29.76;39.55;94412.03;4976294;28;8913;-87
2023/08/16 02:44:14;;;;;;;;;;;;;;;29.76;39.90;94418.34;5001781;28;8753;-87
2023/08/16 02:46:45;;;;;;;;;;;;;;;29.74;39.34;94411.84;4991628;28;8788;-87
2023/08/16 02:49:18;;;;;;;;;;;;;;;29.74;39.74;94409.06;4990605;28;8675;-87
2023/08/16 02:51:50;;;;;;;;;;;;;;;29.67;39.24;94398.59;4992690;28;6991;-87
2023/08/16 02:54:17;;;;;;;;;;;;;;;29.70;39.36;94394.75;5002509;28;9280;-87
2023/08/16 02:56:45;;;;;;;;;;;;;;;29.67;39.35;94398.59;4984834;28;9064;-87
2023/08/16 02:59:14;;;;;;;;;;;;;;;29.69;39.43;94398.81;4990641;28;9079;-88
2023/08/16 03:01:56;;;;;;;;;;;;;;;29.70;40.01;94392.00;4994134;28;7007;-87
2023/08/16 03:04:24;;;;;;;;;;;;;;;29.69;39.50;94396.03;4988211;28;7001;-87
2023/08/16 03:06:50;;;;;;;;;;;;;;;29.68;39.10;94391.78;4990546;28;7248;-88
2023/08/16 03:09:30;;;;;;;;;;;;;;;29.69;39.46;94390.50;4990928;28;8763;-87
2023/08/16 03:11:56;;;;;;;;;;;;;;;29.65;39.52;94387.31;4978868;28;8702;-87
2023/08/16 03:14:23;;;;;;;;;;;;;;;29.67;39.36;94384.75;4980361;28;7242;-87
2023/08/16 03:16:50;;;;;;;;;;;;;;;29.65;39.35;94388.06;4993155;28;7453;-87
2023/08/16 03:19:17;;;;;;;;;;;;;;;29.65;39.50;94390.09;4987036;28;8986;-89
2023/08/16 03:21:45;;;;;;;;;;;;;;;29.60;40.03;94377.84;4992970;28;7059;-89
2023/08/16 03:24:14;;;;;;;;;;;;;;;29.64;39.47;94386.59;4999751;28;6886;-88
2023/08/16 03:26:48;;;;;;;;;;;;;;;29.60;39.76;94388.19;5007496;28;7463;-89
2023/08/16 03:29:17;;;;;;;;;;;;;;;29.60;39.55;94390.97;4989411;28;7268;-88
2023/08/16 03:31:46;;;;;;;;;;;;;;;29.59;39.64;94386.69;5002672;28;8608;-88
2023/08/16 03:34:22;;;;;;;;;;;;;;;29.61;39.77;94381.34;4984970;28;8647;-89
2023/08/16 03:36:51;;;;;;;;;;;;;;;29.59;39.62;94390.22;4990315;28;9011;-89
2023/08/16 03:39:18;;;;;;;;;;;;;;;29.56;39.74;94390.53;4998653;28;8743;-89
2023/08/16 03:41:52;;;;;;;;;;;;;;;29.59;39.59;94401.31;5009458;28;9198;-88
2023/08/16 03:44:25;;;;;;;;;;;;;;;29.56;39.12;94402.38;4990298;28;8750;-89
2023/08/16 03:46:57;;;;;;;;;;;;;;;29.55;39.29;94414.75;4996827;28;9325;-89
2023/08/16 03:49:23;;;;;;;;;;;;;;;29.53;39.14;94405.47;4980637;28;8738;-89
2023/08/16 03:51:58;;;;;;;;;;;;;;;29.48;39.97;94406.34;4993061;28;8705;-89
2023/08/16 03:54:33;;;;;;;;;;;;;;;29.55;39.35;94416.78;5002216;28;8756;-89
2023/08/16 03:57:06;;;;;;;;;;;;;;;29.56;39.25;94416.22;4976246;28;9180;-89
2023/08/16 03:59:41;;;;;;;;;;;;;;;29.54;39.73;94420.81;5000110;28;8766;-89
2023/08/16 04:02:07;;;;;;;;;;;;;;;29.55;39.57;94430.63;4988179;28;7416;-89
2023/08/16 04:04:37;;;;;;;;;;;;;;;29.55;39.01;94427.84;4992963;28;8985;-89
2023/08/16 04:07:03;;;;;;;;;;;;;;;29.57;39.21;94436.38;4997937;28;6986;-88
2023/08/16 04:09:30;;;;;;;;;;;;;;;29.53;39.65;94436.72;4977663;28;9064;-89
2023/08/16 04:11:56;;;;;;;;;;;;;;;29.55;38.88;94444.50;4984768;28;8963;-89
2023/08/16 04:14:23;;;;;;;;;;;;;;;29.52;38.81;94440.75;4994530;28;8966;-88
2023/08/16 04:16:50;;;;;;;;;;;;;;;29.49;39.43;94441.09;4980700;28;8978;-89
2023/08/16 04:19:18;;;;;;;;;;;;;;;29.50;39.09;94440.56;4987893;28;9032;-89
2023/08/16 04:21:46;;;;;;;;;;;;;;;29.53;39.36;94442.25;4997118;28;7017;-88
2023/08/16 04:24:14;;;;;;;;;;;;;;;29.54;39.29;94454.06;4987830;28;8994;-89
2023/08/16 04:26:42;;;;;;;;;;;;;;;29.49;39.48;94452.19;4976448;28;8882;-89
2023/08/16 04:29:08;;;;;;;;;;;;;;;29.46;39.06;94450.47;4986847;28;8795;-89
2023/08/16 04:31:35;;;;;;;;;;;;;;;29.51;38.77;94460.69;4984590;28;7074;-89
2023/08/16 04:34:06;;;;;;;;;;;;;;;29.50;39.62;94456.44;4995758;28;10004;-88
2023/08/16 04:36:32;;;;;;;;;;;;;;;29.45;38.69;94451.75;4985604;28;7507;-89
2023/08/16 04:38:58;;;;;;;;;;;;;;;29.49;38.65;94452.19;4994621;28;8770;-89
2023/08/16 04:41:23;;;;;;;;;;;;;;;29.47;39.14;94468.59;4999727;28;9040;-89
2023/08/16 04:43:50;;;;;;;;;;;;;;;29.41;39.11;94460.38;4983944;28;9109;-89
2023/08/16 04:46:15;;;;;;;;;;;;;;;29.41;39.67;94473.47;4995812;28;9005;-89
2023/08/16 04:48:41;;;;;;;;;;;;;;;29.36;39.98;94463.28;4980097;28;9046;-89
2023/08/16 04:51:07;;;;;;;;;;;;;;;29.39;39.69;94470.50;5004183;28;7157;-89
2023/08/16 04:53:38;;;;;;;;;;;;;;;29.39;39.87;94476.06;4985762;28;8611;-89
2023/08/16 04:56:06;;;;;;;;;;;;;;;29.33;39.72;94467.09;4986971;28;8713;-88
2023/08/16 04:58:33;;;;;;;;;;;;;;;29.41;38.82;94465.16;4991563;28;7350;-89
2023/08/16 05:01:01;;;;;;;;;;;;;;;29.38;39.68;94467.00;4982965;28;9593;-89
2023/08/16 05:03:38;;;;;;;;;;;;;;;29.44;39.30;94473.19;4994259;28;6957;-90
2023/08/16 05:06:05;;;;;;;;;;;;;;;29.42;39.03;94477.75;4989982;28;9184;-89
2023/08/16 05:08:31;;;;;;;;;;;;;;;29.39;39.33;94481.59;4983849;28;8749;-88
2023/08/16 05:10:59;;;;;;;;;;;;;;;29.30;39.03;94476.47;5007516;28;7437;-89
2023/08/16 05:13:29;;;;;;;;;;;;;;;29.25;39.04;94471.81;4998470;28;8981;-89
2023/08/16 05:15:56;;;;;;;;;;;;;;;29.23;39.22;94474.38;4990691;28;7575;-89
2023/08/16 05:18:24;;;;;;;;;;;;;;;29.21;38.87;94477.66;4990376;28;9017;-88
2023/08/16 05:20:56;;;;;;;;;;;;;;;29.20;38.62;94486.50;4993345;28;8998;-89
2023/08/16 05:23:22;;;;;;;;;;;;;;;29.18;39.61;94489.81;4986299;28;7263;-89
2023/08/16 05:25:49;;;;;;;;;;;;;;;29.17;39.25;94493.13;4990227;28;8759;-89
2023/08/16 05:28:20;;;;;;;;;;;;;;;29.17;38.95;94493.13;4989003;28;8963;-89
2023/08/16 05:30:55;;;;;;;;;;;;;;;29.15;39.58;94495.63;4991405;28;9101;-89
2023/08/16 05:33:26;;;;;;;;;;;;;;;29.13;40.80;94495.41;4977196;28;8804;-89
2023/08/16 05:36:08;;;;;;;;;;;;;;;29.13;40.14;94495.41;4980299;28;9071;-89
2023/08/16 05:38:36;;;;;;;;;;;;;;;29.17;40.10;94495.91;4987033;28;7080;-89
2023/08/16 05:41:08;;;;;;;;;;;;;;;29.19;40.31;94499.59;4986480;28;6867;-88
2023/08/16 05:43:40;;;;;;;;;;;;;;;29.22;40.25;94501.31;4993109;28;8777;-88
2023/08/16 05:46:08;;;;;;;;;;;;;;;29.23;40.51;94505.56;4987604;28;8790;-87
2023/08/16 05:48:37;;;;;;;;;;;;;;;29.21;40.70;94510.16;4988182;28;6867;-88
2023/08/16 05:51:04;;;;;;;;;;;;;;;29.23;40.72;94507.59;4998693;28;7032;-88
2023/08/16 05:53:37;;;;;;;;;;;;;;;29.25;41.02;94510.59;4985506;28;9394;-88
2023/08/16 05:56:06;;;;;;;;;;;;;;;29.21;40.85;94508.13;4981420;28;7343;-88
2023/08/16 05:58:32;;;;;;;;;;;;;;;29.19;41.05;94512.72;4999297;28;8796;-88
2023/08/16 06:01:00;;;;;;;;;;;;;;;29.21;41.23;94515.72;4979319;28;7025;-88
2023/08/16 06:03:29;;;;;;;;;;;;;;;29.24;40.95;94520.16;5005964;28;9017;-88
2023/08/16 06:05:58;;;;;;;;;;;;;;;29.23;40.69;94513.16;4984745;28;8705;-88
2023/08/16 06:08:25;;;;;;;;;;;;;;;29.22;41.34;94512.41;4994080;28;8696;-88
2023/08/16 06:10:56;;;;;;;;;;;;;;;29.24;42.00;94514.63;4983030;28;7034;-88
2023/08/16 06:13:21;;;;;;;;;;;;;;;29.23;41.67;94507.59;4979276;28;8761;-87
2023/08/16 06:15:54;;;;;;;;;;;;;;;29.27;41.94;94516.34;4998790;28;9039;-87
2023/08/16 06:18:30;;;;;;;;;;;;;;;29.26;41.30;94507.28;4982311;28;8714;-88
2023/08/16 06:21:03;;;;;;;;;;;;;;;29.26;41.82;94510.06;4989194;28;8761;-87
2023/08/16 06:23:40;;;;;;;;;;;;;;;29.25;42.33;94505.81;5009606;28;8614;-87
2023/08/16 06:26:09;;;;;;;;;;;;;;;29.21;42.42;94497.03;4984202;28;8828;-87
2023/08/16 06:28:40;;;;;;;;;;;;;;;29.21;42.11;94497.03;5006473;28;8738;-87
2023/08/16 06:31:08;;;;;;;;;;;;;;;29.22;42.31;94495.03;4993884;28;8809;-88
2023/08/16 06:33:37;;;;;;;;;;;;;;;29.18;43.18;94502.91;4986633;28;9136;-87
2023/08/16 06:36:13;;;;;;;;;;;;;;;29.18;43.34;94500.91;4983680;28;7361;-87
2023/08/16 06:38:45;;;;;;;;;;;;;;;29.16;43.43;94497.91;5002007;28;9209;-88
2023/08/16 06:41:18;;;;;;;;;;;;;;;29.17;43.79;94487.59;4990417;28;8740;-88
2023/08/16 06:43:48;;;;;;;;;;;;;;;29.14;43.31;94494.16;4997205;28;9102;-88
2023/08/16 06:46:23;;;;;;;;;;;;;;;29.19;43.89;94496.84;4982700;28;9266;-88
2023/08/16 06:48:53;;;;;;;;;;;;;;;29.17;43.92;94495.91;4987217;28;8999;-89
2023/08/16 06:51:26;;;;;;;;;;;;;;;29.23;43.41;94499.31;4989326;28;6985;-88
2023/08/16 06:54:04;;;;;;;;;;;;;;;29.23;44.20;94496.53;4991248;28;10050;-88
2023/08/16 06:56:32;;;;;;;;;;;;;;;29.23;43.93;94508.34;4990291;28;9321;-89
2023/08/16 06:59:04;;;;;;;;;;;;;;;29.24;43.68;94514.63;4993783;28;8729;-84
2023/08/16 07:01:38;;;;;;;;;;;;;;;29.26;44.29;94506.53;4988048;28;7146;-85
2023/08/16 07:04:09;;;;;;;;;;;;;;;29.27;43.76;94508.78;4999610;28;6895;-83
2023/08/16 07:06:35;;;;;;;;;;;;;;;29.29;44.01;94505.47;5000306;28;8750;-85
2023/08/16 07:09:04;;;;;;;;;;;;;;;29.30;44.40;94510.47;5000570;28;8460;-85
2023/08/16 07:11:32;;;;;;;;;;;;;;;29.29;43.87;94503.47;4991888;28;8800;-86
2023/08/16 07:14:00;;;;;;;;;;;;;;;29.32;44.02;94507.19;4987622;28;9017;-85
2023/08/16 07:16:26;;;;;;;;;;;;;;;29.31;43.81;94505.69;4984814;28;8721;-86
2023/08/16 07:18:54;;;;;;;;;;;;;;;29.34;43.23;94508.13;4993366;28;8743;-85
2023/08/16 07:21:29;;;;;;;;;;;;;;;29.36;43.51;94510.38;4984692;28;9226;-85
2023/08/16 07:24:04;;;;;;;;;;;;;;;29.31;43.87;94503.66;4995981;28;9024;-85
2023/08/16 07:26:33;;;;;;;;;;;;;;;29.37;43.81;94506.31;5006503;28;8769;-85
2023/08/16 07:28:59;;;;;;;;;;;;;;;29.32;43.55;94499.59;5001660;28;7214;-85
2023/08/16 07:31:28;;;;;;;;;;;;;;;29.39;43.90;94504.50;4985394;28;7227;-84
2023/08/16 07:33:54;;;;;;;;;;;;;;;29.38;43.08;94505.06;4984382;28;7377;-83
2023/08/16 07:36:24;;;;;;;;;;;;;;;29.39;43.35;94506.53;4986112;28;8819;-83
2023/08/16 07:38:52;;;;;;;;;;;;;;;29.34;43.21;94496.31;4996153;28;8719;-84
2023/08/16 07:41:20;;;;;;;;;;;;;;;29.42;43.24;94514.53;4997358;28;8783;-84
2023/08/16 07:43:52;;;;;;;;;;;;;;;29.39;43.50;94509.31;4985310;28;9334;-84
2023/08/16 07:46:24;;;;;;;;;;;;;;;29.42;43.82;94513.78;4991202;28;6998;-84
2023/08/16 07:48:58;;;;;;;;;;;;;;;29.41;43.26;94515.06;4994490;28;9015;-84
2023/08/16 07:51:30;;;;;;;;;;;;;;;29.39;43.29;94512.06;4988856;28;8735;-84
2023/08/16 07:54:00;;;;;;;;;;;;;;;29.44;42.81;94525.09;4990981;28;7036;-84
2023/08/16 07:56:28;;;;;;;;;;;;;;;29.38;43.02;94516.13;4988075;28;8263;-84
2023/08/16 07:58:56;;;;;;;;;;;;;;;29.38;43.91;94518.91;4993018;28;7224;-84
2023/08/16 08:01:23;;;;;;;;;;;;;;;29.38;42.98;94519.66;4994062;28;8747;-84
2023/08/16 08:03:58;;;;;;;;;;;;;;;29.39;43.09;94531.47;5005155;28;8755;-84
2023/08/16 08:06:26;;;;;;;;;;;;;;;29.34;44.02;94526.78;4982724;28;8988;-84
2023/08/16 08:08:53;;;;;;;;;;;;;;;29.29;44.10;94522.09;4985284;28;7239;-85
2023/08/16 08:11:21;;;;;;;;;;;;;;;29.32;44.04;94516.22;4987294;28;7277;-86
2023/08/16 08:13:49;;;;;;;;;;;;;;;29.36;43.44;94532.56;5003460;28;8738;-85
2023/08/16 08:16:15;;;;;;;;;;;;;;;29.33;42.98;94528.06;4989841;28;7181;-85
2023/08/16 08:18:45;;;;;;;;;;;;;;;29.33;43.75;94526.03;4992404;28;8677;-85
2023/08/16 08:21:13;;;;;;;;;;;;;;;29.34;43.52;94530.28;4986115;28;8695;-85
2023/08/16 08:23:48;;;;;;;;;;;;;;;29.32;44.16;94526.59;4984989;28;8734;-85
2023/08/16 08:26:17;;;;;;;;;;;;;;;29.32;43.71;94527.31;4988167;28;8715;-85
2023/08/16 08:28:54;;;;;;;;;;;;;;;29.31;43.46;94525.84;4991787;28;9011;-85
2023/08/16 08:31:29;;;;;;;;;;;;;;;29.31;44.19;94527.84;4984201;28;7232;-85
2023/08/16 08:33:55;;;;;;;;;;;;;;;29.32;43.59;94532.84;4989745;28;8718;-85
2023/08/16 08:36:22;;;;;;;;;;;;;;;29.31;43.35;94531.38;4983068;28;7271;-85
2023/08/16 08:38:51;;;;;;;;;;;;;;;29.34;43.65;94532.34;4994543;28;7041;-85
2023/08/16 08:41:21;;;;;;;;;;;;;;;29.33;43.42;94531.59;5000228;28;7118;-85
2023/08/16 08:43:56;;;;;;;;;;;;;;;29.31;43.29;94522.31;5004651;28;9091;-86
2023/08/16 08:46:26;;;;;;;;;;;;;;;29.32;43.59;94532.13;4990092;28;9080;-85
2023/08/16 08:48:58;;;;;;;;;;;;;;;29.35;43.53;94519.97;4984741;28;8596;-85
2023/08/16 08:51:30;;;;;;;;;;;;;;;29.37;43.96;94522.94;4984278;28;8991;-85
2023/08/16 08:54:04;;;;;;;;;;;;;;;29.36;43.71;94527.72;4986314;28;9131;-85
2023/08/16 08:56:45;;;;;;;;;;;;;;;29.39;44.13;94531.47;4999449;28;8733;-85
2023/08/16 08:59:13;;;;;;;;;;;;;;;29.38;43.37;94527.97;4984226;28;9215;-85
2023/08/16 09:01:43;;;;;;;;;;;;;;;29.36;43.37;94524.97;4988792;28;9073;-86
2023/08/16 09:04:15;;;;;;;;;;;;;;;29.38;43.38;94532.75;5002973;28;7000;-85
2023/08/16 09:06:41;;;;;;;;;;;;;;;29.39;43.83;94523.91;4984952;28;7306;-85
2023/08/16 09:09:09;;;;;;;;;;;;;;;29.39;43.89;94537.75;4983743;28;8601;-85
2023/08/16 09:11:41;;;;;;;;;;;;;;;29.39;43.34;94526.69;4985919;28;8768;-85
2023/08/16 09:14:13;;;;;;;;;;;;;;;29.40;43.66;94522.63;4987264;28;8806;-85
2023/08/16 09:16:46;;;;;;;;;;;;;;;29.43;43.25;94518.03;4983531;28;9182;-85
2023/08/16 09:19:23;;;;;;;;;;;;;;;29.43;43.16;94520.81;4981346;28;8825;-86
2023/08/16 09:21:58;;;;;;;;;;;;;;;29.44;43.70;94522.31;4983091;28;9167;-85
2023/08/16 09:24:58;;;;;;;;;;;;;;;29.43;43.71;94521.56;5003775;28;8998;-85
2023/08/16 09:27:26;;;;;;;;;;;;;;;29.41;44.51;94513.03;4938887;28;8573;-85
2023/08/16 09:30:01;;;;;;;;;;;;;;;29.41;44.64;94510.25;4935821;28;8810;-85
2023/08/16 09:32:35;;;;;;;;;;;;;;;29.45;44.22;94512.72;4948323;28;9594;-85
2023/08/16 09:35:04;;;;;;;;;;;;;;;29.45;43.56;94507.91;4935655;28;8782;-85
2023/08/16 09:37:37;;;;;;;;;;;;;;;29.46;43.32;94511.44;4929482;28;9008;-85
2023/08/16 09:40:04;;;;;;;;;;;;;;;29.42;43.56;94502.69;4957428;28;6996;-85
2023/08/16 09:42:35;;;;;;;;;;;;;;;29.46;44.02;94503.13;4936391;28;7238;-85
2023/08/16 09:45:03;;;;;;;;;;;;;;;29.45;44.30;94507.19;4928496;28;9023;-85
2023/08/16 09:47:32;;;;;;;;;;;;;;;29.48;43.77;94495.03;4952129;28;9186;-85
2023/08/16 09:50:05;;;;;;;;;;;;;;;29.40;43.59;94494.94;4932044;28;6990;-85
2023/08/16 09:52:36;;;;;;;;;;;;;;;29.47;43.74;94493.53;4946600;28;9236;-85
2023/08/16 09:55:11;;;;;;;;;;;;;;;29.48;44.16;94495.03;4947052;28;8993;-86
2023/08/16 09:57:47;;;;;;;;;;;;;;;29.50;43.93;94492.47;4949593;28;9106;-86
2023/08/16 10:00:27;;;;;;;;;;;;;;;29.50;44.21;94486.91;4952495;28;7241;-85
2023/08/16 10:02:56;;;;;;;;;;;;;;;29.48;44.23;94489.47;4960095;28;9086;-85
2023/08/16 10:05:25;;;;;;;;;;;;;;;29.53;44.17;94491.41;4988612;28;8994;-85
2023/08/16 10:07:54;;;;;;;;;;;;;;;29.57;42.90;94486.28;4986617;28;8733;-86
2023/08/16 10:10:27;;;;;;;;;;;;;;;29.58;43.37;94476.69;4985759;28;8886;-86
2023/08/16 10:12:56;;;;;;;;;;;;;;;29.57;43.94;94487.03;4991757;28;9128;-85
2023/08/16 10:15:25;;;;;;;;;;;;;;;29.65;44.53;94481.56;4989219;28;8804;-85
2023/08/16 10:18:02;;;;;;;;;;;;;;;29.67;43.72;94484.53;4983271;28;8754;-86
2023/08/16 10:20:35;;;;;;;;;;;;;;;29.68;43.09;94469.41;4981545;28;9040;-86
2023/08/16 10:23:03;;;;;;;;;;;;;;;29.62;43.42;94471.56;5003500;28;8846;-86
2023/08/16 10:25:44;;;;;;;;;;;;;;;29.68;42.55;94474.97;4988206;28;8785;-86
2023/08/16 10:28:21;;;;;;;;;;;;;;;29.64;42.65;94463.44;4999279;28;7272;-89
2023/08/16 10:30:58;;;;;;;;;;;;;;;29.66;42.87;94458.88;5001871;28;9050;-89
2023/08/16 10:33:38;;;;;;;;;;;;;;;29.69;42.66;94462.56;4986890;28;8751;-88
2023/08/16 10:36:05;;;;;;;;;;;;;;;29.67;42.66;94454.03;4997153;28;9330;-88
2023/08/16 10:38:41;;;;;;;;;;;;;;;29.68;43.56;94450.00;5000032;28;9038;-88
2023/08/16 10:41:13;;;;;;;;;;;;;;;29.73;43.88;94451.94;4993535;28;7001;-88
2023/08/16 10:43:46;;;;;;;;;;;;;;;29.75;43.38;94446.63;4983180;28;9180;-88
2023/08/16 10:46:30;;;;;;;;;;;;;;;29.72;43.55;94442.84;4981500;28;8731;-88
2023/08/16 10:49:01;;;;;;;;;;;;;;;29.78;43.41;94451.06;4977739;28;8723;-88
2023/08/16 10:51:30;;;;;;;;;;;;;;;29.75;42.68;94449.38;4982971;28;7034;-88
2023/08/16 10:53:59;;;;;;;;;;;;;;;29.74;42.84;94445.09;4991198;28;8712;-88
2023/08/16 10:56:36;;;;;;;;;;;;;;;29.79;42.63;94453.31;4990170;28;9022;-88
2023/08/16 10:59:08;;;;;;;;;;;;;;;29.75;42.90;94441.06;4997911;28;8741;-88
2023/08/16 11:01:44;;;;;;;;;;;;;;;29.80;42.97;94437.41;4986067;28;10034;-88
2023/08/16 11:04:09;;;;;;;;;;;;;;;29.84;42.86;94451.69;4985622;28;9012;-88
2023/08/16 11:06:40;;;;;;;;;;;;;;;29.85;43.40;94444.13;4994403;28;8678;-88
2023/08/16 11:09:07;;;;;;;;;;;;;;;29.86;43.09;94451.16;4996346;28;8578;-88
2023/08/16 11:11:49;;;;;;;;;;;;;;;29.87;43.27;94447.84;4983240;28;8753;-88
2023/08/16 11:14:15;;;;;;;;;;;;;;;29.83;43.40;94441.13;4978157;28;9027;-88
2023/08/16 11:16:42;;;;;;;;;;;;;;;29.80;43.05;94432.63;4987453;28;7276;-88
2023/08/16 11:19:10;;;;;;;;;;;;;;;29.85;43.68;94439.31;4991356;28;9019;-88
2023/08/16 11:21:46;;;;;;;;;;;;;;;29.89;42.80;94445.28;4980788;28;7514;-88
2023/08/16 11:24:15;;;;;;;;;;;;;;;29.88;42.82;94438.25;4980059;28;7408;-88
2023/08/16 11:26:40;;;;;;;;;;;;;;;29.86;43.09;94435.28;4991756;28;9103;-88
2023/08/16 11:29:15;;;;;;;;;;;;;;;29.90;42.64;94444.00;4989339;28;8722;-88
2023/08/16 11:31:44;;;;;;;;;;;;;;;29.89;43.34;94439.72;4985382;28;9160;-88
2023/08/16 11:34:15;;;;;;;;;;;;;;;29.89;42.98;94431.41;4987435;28;9809;-88
2023/08/16 11:36:50;;;;;;;;;;;;;;;29.93;43.08;94434.59;4983384;28;8724;-88
2023/08/16 11:39:18;;;;;;;;;;;;;;;29.92;43.33;94427.56;4987894;28;8998;-86
2023/08/16 11:41:44;;;;;;;;;;;;;;;29.97;43.48;94431.50;4982439;28;8759;-85
2023/08/16 11:44:12;;;;;;;;;;;;;;;29.89;42.99;94428.63;4996073;28;7151;-85
2023/08/16 11:46:48;;;;;;;;;;;;;;;29.96;42.93;94421.69;4985926;28;7291;-85
2023/08/16 11:49:21;;;;;;;;;;;;;;;29.89;43.62;94414.78;4985614;28;8711;-85
2023/08/16 11:51:49;;;;;;;;;;;;;;;29.94;43.63;94422.22;4984559;28;7249;-85
2023/08/16 11:54:23;;;;;;;;;;;;;;;29.95;43.38;94420.22;4992558;28;9095;-85
2023/08/16 11:57:01;;;;;;;;;;;;;;;29.92;43.43;94416.47;4988057;28;7015;-84
2023/08/16 11:59:29;;;;;;;;;;;;;;;29.91;43.49;94414.97;4999327;28;7033;-85
2023/08/16 12:02:09;;;;;;;;;;;;;;;29.87;43.23;94409.03;4991996;28;8923;-85
2023/08/16 12:04:42;;;;;;;;;;;;;;;29.89;42.97;94408.47;4990303;28;8700;-85
2023/08/16 12:07:11;;;;;;;;;;;;;;;29.92;43.85;94410.19;4988774;28;7011;-85
2023/08/16 12:09:57;;;;;;;;;;;;;;;29.91;42.86;94394.81;4993917;28;9093;-85
2023/08/16 12:12:33;;;;;;;;;;;;;;;29.91;43.11;94403.13;4987621;28;7221;-85
2023/08/16 12:14:59;;;;;;;;;;;;;;;29.88;43.68;94393.88;4988018;28;6951;-86
2023/08/16 12:17:26;;;;;;;;;;;;;;;29.90;42.96;94390.56;4986827;28;8588;-85
2023/08/16 12:19:55;;;;;;;;;;;;;;;29.97;43.73;94398.94;5002329;28;8998;-85
2023/08/16 12:22:33;;;;;;;;;;;;;;;30.00;43.54;94397.88;4989253;28;8692;-85
2023/08/16 12:25:02;;;;;;;;;;;;;;;29.96;43.75;94393.94;4987843;28;9017;-85
2023/08/16 12:27:29;;;;;;;;;;;;;;;29.96;43.54;94391.19;4983953;28;9038;-85
2023/08/16 12:29:56;;;;;;;;;;;;;;;29.95;43.63;94393.19;4989705;28;8743;-85
2023/08/16 12:32:30;;;;;;;;;;;;;;;30.00;43.66;94388.81;4981392;28;7046;-85
2023/08/16 12:34:58;;;;;;;;;;;;;;;30.00;43.78;94383.25;4996938;28;8711;-85
2023/08/16 12:37:26;;;;;;;;;;;;;;;30.02;44.26;94386.97;4986065;28;9224;-85
2023/08/16 12:39:53;;;;;;;;;;;;;;;30.05;44.32;94383.13;4987635;28;7032;-85
2023/08/16 12:42:25;;;;;;;;;;;;;;;30.01;43.86;94385.50;4989585;28;8717;-85
2023/08/16 12:44:57;;;;;;;;;;;;;;;30.04;43.46;94381.63;4986567;28;7235;-85
2023/08/16 12:47:27;;;;;;;;;;;;;;;30.01;44.23;94368.88;4982828;28;7037;-87
2023/08/16 12:50:02;;;;;;;;;;;;;;;30.00;43.45;94370.13;4997041;28;7105;-87
2023/08/16 12:52:28;;;;;;;;;;;;;;;30.03;44.37;94371.09;4994100;28;9068;-87
2023/08/16 12:54:56;;;;;;;;;;;;;;;30.09;44.34;94375.22;4996593;28;8779;-87
2023/08/16 12:57:31;;;;;;;;;;;;;;;30.10;44.02;94381.53;4994067;28;9293;-86
2023/08/16 13:00:03;;;;;;;;;;;;;;;30.12;44.17;94376.16;5003844;28;8768;-87
2023/08/16 13:02:44;;;;;;;;;;;;;;;30.12;44.38;94368.59;4991571;28;9131;-87
2023/08/16 13:05:12;;;;;;;;;;;;;;;30.13;43.90;94370.06;4977070;28;8968;-87
2023/08/16 13:07:42;;;;;;;;;;;;;;;30.16;44.11;94366.22;5000210;28;7369;-87
2023/08/16 13:10:08;;;;;;;;;;;;;;;30.17;43.46;94364.94;5005107;28;6945;-87
2023/08/16 13:12:35;;;;;;;;;;;;;;;30.19;44.06;94367.91;5002720;28;7100;-87
2023/08/16 13:15:01;;;;;;;;;;;;;;;30.20;44.15;94366.63;4985224;28;9019;-87